Mesa.AZweather.com - Mesa, AZ
   Red Mountain Frwy and University Dr., El 1518 ft.
       --- Saturday  Sep. 7, 2019 ---
 
 High Temperature ..  105F at 14:45
 Low Temperature ...  84F at 03:08
 
 High Humidity .....  46% at 07:50
 Low Humidity ......  22% at 18:57
 
 Rainfall Total ....  0.00 in.
 
 High Wind Speed ... ---
                     
 
 High Barometer ....  29.95 at 08:30
 Low Barometer .....  29.77 at 16:31
 
Dew Point    High .... 66   Low ..... 51
 
 
 Time   Temp  Humi  Rain     Baro  DewPt  Wind
00:00,  87F, 38%, 0.00 in, 29.90, 59F, ---
00:30,  87F, 39%, 0.00 in, 29.90, 60F, ---
01:00,  87F, 39%, 0.00 in, 29.89, 60F, ---
01:30,  87F, 40%, 0.00 in, 29.89, 60F, ---
02:00,  86F, 40%, 0.00 in, 29.89, 59F, ---
02:30,  86F, 40%, 0.00 in, 29.89, 59F, ---
03:00,  85F, 41%, 0.00 in, 29.89, 58F, ---
03:30,  85F, 41%, 0.00 in, 29.89, 58F, ---
04:00,  86F, 39%, 0.00 in, 29.89, 58F, ---
04:30,  86F, 38%, 0.00 in, 29.90, 57F, ---
05:00,  86F, 39%, 0.00 in, 29.90, 58F, ---
05:30,  86F, 41%, 0.00 in, 29.91, 60F, ---
06:00,  86F, 42%, 0.00 in, 29.91, 60F, ---
06:30,  86F, 43%, 0.00 in, 29.92, 61F, ---
07:00,  86F, 44%, 0.00 in, 29.93, 62F, ---
07:30,  87F, 45%, 0.00 in, 29.94, 64F, ---
08:00,  87F, 46%, 0.00 in, 29.93, 64F, ---
08:30,  88F, 45%, 0.00 in, 29.95, 64F, ---
09:00,  90F, 42%, 0.00 in, 29.94, 63F, ---
09:30,  91F, 41%, 0.00 in, 29.95, 64F, ---
10:00,  92F, 40%, 0.00 in, 29.94, 64F, ---
10:30,  93F, 39%, 0.00 in, 29.94, 65F, ---
11:00,  94F, 37%, 0.00 in, 29.93, 63F, ---
11:30,  96F, 35%, 0.00 in, 29.91, 65F, ---
12:00,  97F, 32%, 0.00 in, 29.90, 62F, ---
12:30,  99F, 29%, 0.00 in, 29.90, 61F, ---
13:00,  99F, 29%, 0.00 in, 29.88, 61F, ---
13:30,  101F, 29%, 0.00 in, 29.86, 62F, ---
14:00,  103F, 27%, 0.00 in, 29.84, 62F, ---
14:30,  104F, 27%, 0.00 in, 29.83, 63F, ---
15:00,  105F, 26%, 0.00 in, 29.81, 64F, ---
15:30,  104F, 24%, 0.00 in, 29.80, 60F, ---
16:00,  105F, 23%, 0.00 in, 29.79, 60F, ---
16:30,  105F, 23%, 0.00 in, 29.78, 60F, ---
17:00,  103F, 23%, 0.00 in, 29.77, 57F, ---
17:30,  103F, 23%, 0.00 in, 29.78, 57F, ---
18:00,  102F, 23%, 0.00 in, 29.77, 57F, ---
18:30,  100F, 23%, 0.00 in, 29.78, 56F, ---
19:00,  98F, 22%, 0.00 in, 29.79, 53F, ---
19:30,  98F, 22%, 0.00 in, 29.80, 53F, ---
20:00,  96F, 22%, 0.00 in, 29.80, 52F, ---
20:30,  94F, 26%, 0.00 in, 29.81, 53F, ---
21:00,  93F, 28%, 0.00 in, 29.82, 55F, ---
21:30,  92F, 30%, 0.00 in, 29.82, 56F, ---
22:00,  91F, 31%, 0.00 in, 29.83, 57F, ---
22:30,  90F, 32%, 0.00 in, 29.84, 56F, ---
23:00,  91F, 35%, 0.00 in, 29.84, 60F, ---
23:30,  90F, 36%, 0.00 in, 29.84, 59F, ---
23:59,  89F, 37%, 0.00 in, 29.85, 60F, ---